KSAR/SAR METAR and TAF weather

Enter ICAO airport designator
Station Type Date Time Source
KSAR METAR 2019/08/23 15:55 UTC NOAA

KSAR 231555Z AUTO 06007KT 10SM OVC010 23/22 A3008 RMK AO2 T02320222


Station Type Date Time Source
KSAR Decoded METAR 2019/08/23 15:55 UTC NOAA

Station name not available
Aug 23, 2019 - 11:55 AM EDT / 2019.08.23 1555 UTC
Wind: from the ENE (060 degrees) at 8 MPH (7 KT):0
Visibility: 10 mile(s):0
Sky conditions: overcast
Temperature: 73.8 F (23.2 C)
Dew Point: 72.0 F (22.2 C)
Relative Humidity: 94%
Pressure (altimeter): 30.08 in. Hg (1018 hPa)
ob: KSAR 231555Z AUTO 06007KT 10SM OVC010 23/22 A3008 RMK AO2 T02320222
cycle: 16

Station Type Date Time Source
KSAR TAF UTC NOAA

Error!

Example: see airport list